CheckWX is a tool to help pilots better visualize weather data.  It is not intended as a substitute for an official pre-flight weather briefing.

10:14:27 UTC

CYFC METAR
Fredericton Airport
Fredericton, Canada
Current

54 mins ago

CYFC 230920Z AUTO 00000KT 6SM BR CLR M17/M19 A3026 RMK SLP251
Observed
Jan-23 @ 09:20 UTC
Visibility
6 SM
Flight Rules
VFR
Conditions
Mist
Cloud Levels
  • Clear skies
Temperature
-17°C / 1°F
Dewpoint
-19°C / -2°F
Humidity
85%
Altimeter
30.26" Hg
Pressure
1024.72 hPa
Previous

55 mins ago

CYFC 230919Z AUTO 00000KT 3SM BR CLR M17/M19 A3026 RMK SLP250
Observed
Jan-23 @ 09:19 UTC
Visibility
3 SM
Flight Rules
MVFR
Conditions
Mist
Cloud Levels
  • Clear skies
Temperature
-17°C / 1°F
Dewpoint
-19°C / -2°F
Humidity
85%
Altimeter
30.26" Hg
Pressure
1024.72 hPa
Previous

1 hour ago

CYFC 230909Z AUTO 00000KT 1 3/4SM BR CLR M14/M15 A3026 RMK SLP250
Observed
Jan-23 @ 09:09 UTC
Visibility
1 3/4 SM
Flight Rules
IFR
Conditions
Mist
Cloud Levels
  • Clear skies
Temperature
-14°C / 7°F
Dewpoint
-15°C / 5°F
Humidity
92%
Altimeter
30.26" Hg
Pressure
1024.72 hPa